This is the latest recevied weather packets stored in our database for station/object VR2MW-X. If no packets are shown the sender has not sent any weather packets the latest 1 day(s).
| Time | Temp. | Humidity | Pressure | Rain* | Wind** | Luminosity | Snow |
|---|---|---|---|---|---|---|---|
| 1836274635 | 25° C | 99% | 2.3 hPa | - | - | - | - |
| 1836274496 | 25° C | 99% | 2.3 hPa | - | - | - | - |
| 1836274024 | 25° C | 99% | 2.3 hPa | - | - | - | - |
| 1778061807 | 23.89° C | 82% | 1011.1 hPa | - | - | - | - |
| 1778061196 | 23.89° C | 82% | 1011.1 hPa | - | - | - | - |
| 1778060586 | 25° C | 81% | 1011.1 hPa | - | - | - | - |
| 1778059975 | 25° C | 81% | 1011.1 hPa | - | - | - | - |
| 1778058754 | 25° C | 79% | 1011.1 hPa | - | - | - | - |
| 1778058142 | 25° C | 79% | 1011.1 hPa | - | - | - | - |
| 1778057531 | 25° C | 78% | 1011.1 hPa | - | - | - | - |
| 1778056920 | 26.11° C | 77% | 1011.1 hPa | - | - | - | - |
| 1778056310 | 26.11° C | 78% | 1011.1 hPa | - | - | - | - |
| 1778055699 | 25° C | 80% | 1011.1 hPa | - | - | - | - |
| 1778055089 | 25° C | 80% | 1011.2 hPa | - | - | - | - |
| 1778054478 | 25° C | 81% | 1011.3 hPa | - | - | - | - |
| 1778053867 | 25° C | 80% | 1011.6 hPa | - | - | - | - |
| 1778053256 | 25° C | 80% | 1011.8 hPa | - | - | - | - |
| 1778052645 | 25° C | 81% | 1011.8 hPa | - | - | - | - |
| 1778052031 | 25° C | 81% | 1012 hPa | - | - | - | - |
| 1778051420 | 23.89° C | 82% | 1012.1 hPa | - | - | - | - |
| 1778050807 | 25° C | 82% | 1012.1 hPa | - | - | - | - |
| 1778050194 | 23.89° C | 82% | 1012.1 hPa | - | - | - | - |
| 1778049584 | 23.89° C | 81% | 1012.1 hPa | - | - | - | - |
| 1778048973 | 25° C | 81% | 1012.2 hPa | - | - | - | - |
| 1778048363 | 25° C | 81% | 1012.3 hPa | - | - | - | - |
* Rain since midnight (hover to see other rain measurements)
** Current wind speed in m/s (hover to see current wind gust speed)